Time;durP1;ratioP1;P1;durP2;ratioP2;P2;SDS_P1;SDS_P2;PMS_P1;PMS_P2;Temp;Humidity;BMP_temperature;BMP_pressure;BME280_temperature;BME280_humidity;BME280_pressure;Samples;Min_cycle;Max_cycle;Signal;HPM_P1;HPM_P2
2021/11/23 00:00:14;;;;;;;13.07;8.50;;;;;;;-1.32;98.18;102294.19;696819;28;3100;-51
2021/11/23 00:00:37;;;;;;;11.43;8.63;;;;;;;-1.28;98.54;102293.63;696270;28;3463;-51
2021/11/23 00:00:58;;;;;;;11.95;8.55;;;;;;;-1.29;98.38;102301.22;694604;28;4341;-51
2021/11/23 00:01:20;;;;;;;12.10;8.40;;;;;;;-1.30;98.72;102299.44;694095;28;1245;-50
2021/11/23 00:01:40;;;;;;;10.93;8.55;;;;;;;-1.37;98.58;102293.88;697008;28;1320;-50
2021/11/23 00:02:00;;;;;;;11.07;8.60;;;;;;;-1.39;98.78;102295.44;696459;28;1127;-51
2021/11/23 00:02:23;;;;;;;10.83;8.17;;;;;;;-1.43;98.96;102300.25;697229;28;1055;-54
2021/11/23 00:02:44;;;;;;;10.95;8.45;;;;;;;-1.47;98.97;102293.13;698958;28;1154;-50
2021/11/23 00:03:05;;;;;;;11.40;8.55;;;;;;;-1.50;99.68;102304.06;700379;28;1123;-52
2021/11/23 00:03:26;;;;;;;12.63;8.75;;;;;;;-1.53;99.69;102297.84;698468;28;3433;-51
2021/11/23 00:03:46;;;;;;;12.07;8.45;;;;;;;-1.49;99.79;102304.97;697298;28;2134;-50
2021/11/23 00:04:07;;;;;;;12.10;8.75;;;;;;;-1.43;99.90;102293.44;699319;28;4722;-53
2021/11/23 00:04:27;;;;;;;11.33;8.80;;;;;;;-1.33;99.73;102296.66;698404;28;1223;-50
2021/11/23 00:04:48;;;;;;;11.70;8.77;;;;;;;-1.25;99.21;102303.22;696641;28;1357;-51
2021/11/23 00:05:10;;;;;;;11.60;8.50;;;;;;;-1.31;98.77;102303.69;697388;28;1407;-50
2021/11/23 00:05:31;;;;;;;12.30;8.80;;;;;;;-1.33;99.34;102301.78;696486;28;985;-53
2021/11/23 00:05:52;;;;;;;11.68;8.93;;;;;;;-1.37;99.24;102293.88;696610;28;1215;-50
2021/11/23 00:06:13;;;;;;;11.73;8.60;;;;;;;-1.36;99.29;102289.63;697372;28;3253;-50
2021/11/23 00:06:35;;;;;;;12.20;8.77;;;;;;;-1.30;98.81;102292.63;697960;28;4015;-51
2021/11/23 00:06:55;;;;;;;11.52;8.98;;;;;;;-1.29;98.74;102298.66;699319;28;4667;-50
2021/11/23 00:07:16;;;;;;;12.23;8.87;;;;;;;-1.28;98.82;102296.19;700233;28;1329;-50
2021/11/23 00:07:37;;;;;;;11.90;8.10;;;;;;;-1.24;98.29;102298.19;699594;28;1329;-52
2021/11/23 00:07:58;;;;;;;12.70;8.68;;;;;;;-1.26;98.07;102293.72;699421;28;1170;-50
2021/11/23 00:08:18;;;;;;;12.48;8.60;;;;;;;-1.20;97.83;102294.16;699068;28;1399;-51
2021/11/23 00:08:40;;;;;;;11.80;8.20;;;;;;;-1.24;97.80;102292.19;699983;28;1174;-52
2021/11/23 00:09:01;;;;;;;13.20;8.45;;;;;;;-1.23;97.83;102299.09;699950;28;1124;-50
2021/11/23 00:09:22;;;;;;;11.68;8.50;;;;;;;-1.24;97.91;102297.31;696141;28;3447;-52
2021/11/23 00:09:43;;;;;;;12.43;8.70;;;;;;;-1.29;97.61;102291.84;696270;28;1189;-50
2021/11/23 00:10:05;;;;;;;13.10;8.73;;;;;;;-1.30;97.63;102289.16;696099;28;4433;-50
2021/11/23 00:10:26;;;;;;;11.75;9.27;;;;;;;-1.33;97.60;102292.44;697145;28;1291;-50
2021/11/23 00:10:47;;;;;;;12.60;8.95;;;;;;;-1.37;97.92;102296.44;697073;28;1297;-50
2021/11/23 00:11:08;;;;;;;12.18;8.77;;;;;;;-1.41;97.66;102285.88;697842;28;1383;-51
2021/11/23 00:11:28;;;;;;;12.85;9.13;;;;;;;-1.39;97.93;102287.72;699797;28;1173;-55
2021/11/23 00:11:49;;;;;;;12.43;9.07;;;;;;;-1.40;98.01;102290.19;699802;28;1617;-51
2021/11/23 00:12:09;;;;;;;13.23;9.68;;;;;;;-1.45;97.88;102286.44;699406;28;3236;-54
2021/11/23 00:12:29;;;;;;;13.80;9.70;;;;;;;-1.49;97.94;102287.00;699166;28;3517;-50
2021/11/23 00:12:50;;;;;;;12.45;9.30;;;;;;;-1.52;98.31;102292.81;698691;28;1290;-51
2021/11/23 00:13:12;;;;;;;14.03;10.27;;;;;;;-1.54;98.41;102289.22;698359;28;4586;-51
2021/11/23 00:13:33;;;;;;;14.88;10.43;;;;;;;-1.56;98.71;102298.50;700150;28;1126;-52
2021/11/23 00:13:54;;;;;;;13.88;10.35;;;;;;;-1.58;99.20;102283.00;700044;28;1162;-54
2021/11/23 00:14:14;;;;;;;14.77;10.47;;;;;;;-1.63;99.23;102286.91;698890;28;1154;-50
2021/11/23 00:14:35;;;;;;;15.52;11.20;;;;;;;-1.64;99.87;102286.81;696919;28;1423;-52
2021/11/23 00:14:58;;;;;;;14.77;11.57;;;;;;;-1.66;99.67;102289.28;697838;28;1380;-50
2021/11/23 00:15:18;;;;;;;13.75;10.93;;;;;;;-1.65;100.00;102292.72;695747;28;2154;-50
2021/11/23 00:15:39;;;;;;;14.10;10.90;;;;;;;-1.66;100.00;102286.72;696700;28;1126;-52
2021/11/23 00:15:59;;;;;;;13.13;10.25;;;;;;;-1.73;100.00;102287.03;698606;28;4575;-52
2021/11/23 00:16:20;;;;;;;13.57;10.30;;;;;;;-1.78;99.96;102288.41;700511;28;1532;-51
2021/11/23 00:16:40;;;;;;;13.50;9.80;;;;;;;-1.81;100.00;102289.06;702414;28;1174;-52
2021/11/23 00:17:00;;;;;;;14.10;9.40;;;;;;;-1.83;100.00;102298.28;702708;28;1194;-52
2021/11/23 00:17:21;;;;;;;13.30;9.45;;;;;;;-1.86;100.00;102290.41;701074;28;1100;-50
2021/11/23 00:17:41;;;;;;;12.97;9.57;;;;;;;-1.90;100.00;102290.94;702324;28;1217;-52
2021/11/23 00:18:05;;;;;;;13.55;9.27;;;;;;;-1.83;100.00;102294.84;699858;28;3840;-52
2021/11/23 00:18:26;;;;;;;14.70;9.73;;;;;;;-1.73;100.00;102290.50;698405;28;4533;-51
2021/11/23 00:18:47;;;;;;;13.33;9.53;;;;;;;-1.64;100.00;102295.38;700134;28;1083;-54
2021/11/23 00:19:07;;;;;;;12.48;9.40;;;;;;;-1.60;100.00;102288.81;698902;28;4416;-50
2021/11/23 00:19:28;;;;;;;13.13;9.30;;;;;;;-1.58;100.00;102292.34;699373;28;996;-50
2021/11/23 00:19:48;;;;;;;13.23;9.40;;;;;;;-1.52;100.00;102287.69;699720;28;1139;-51
2021/11/23 00:20:09;;;;;;;12.50;9.37;;;;;;;-1.48;100.00;102287.13;700043;28;1325;-51
2021/11/23 00:20:29;;;;;;;12.85;9.13;;;;;;;-1.47;99.45;102293.13;699672;28;3061;-50
2021/11/23 00:20:50;;;;;;;12.83;8.80;;;;;;;-1.51;99.71;102281.75;699351;28;1485;-51
2021/11/23 00:21:11;;;;;;;12.33;8.80;;;;;;;-1.51;99.59;102286.88;698185;28;3452;-51
2021/11/23 00:21:31;;;;;;;12.68;8.85;;;;;;;-1.51;99.70;102286.88;699920;28;1480;-51
2021/11/23 00:21:52;;;;;;;11.93;8.50;;;;;;;-1.53;99.32;102292.72;699737;28;1046;-52
2021/11/23 00:22:12;;;;;;;12.10;8.77;;;;;;;-1.60;99.24;102292.25;696194;28;4499;-50
2021/11/23 00:22:32;;;;;;;12.37;8.73;;;;;;;-1.60;99.70;102291.38;696756;28;1325;-52
2021/11/23 00:22:54;;;;;;;12.33;8.67;;;;;;;-1.58;100.00;102292.34;697364;28;1027;-51
2021/11/23 00:23:15;;;;;;;13.07;9.13;;;;;;;-1.60;99.96;102283.69;696658;28;1258;-51
2021/11/23 00:23:36;;;;;;;12.73;8.90;;;;;;;-1.56;100.00;102289.13;697226;28;1452;-53
2021/11/23 00:23:56;;;;;;;13.03;9.20;;;;;;;-1.49;99.90;102285.31;698005;28;3238;-50
2021/11/23 00:24:16;;;;;;;12.18;8.88;;;;;;;-1.42;99.02;102292.66;698923;28;3451;-51
2021/11/23 00:24:37;;;;;;;11.57;8.67;;;;;;;-1.37;99.47;102296.44;696680;28;1496;-51
2021/11/23 00:24:59;;;;;;;12.57;8.77;;;;;;;-1.35;98.52;102295.69;696594;28;4583;-51
2021/11/23 00:25:19;;;;;;;12.88;8.38;;;;;;;-1.36;98.76;102292.19;693996;28;1160;-51
2021/11/23 00:25:42;;;;;;;12.15;8.68;;;;;;;-1.37;98.74;102293.00;694776;28;1505;-51
2021/11/23 00:26:02;;;;;;;11.93;8.20;;;;;;;-1.40;98.38;102288.53;694606;28;1188;-50
2021/11/23 00:26:23;;;;;;;12.65;8.70;;;;;;;-1.40;99.27;102285.06;694871;28;1059;-50
2021/11/23 00:26:43;;;;;;;11.90;9.00;;;;;;;-1.41;99.11;102297.00;697302;28;1528;-58
2021/11/23 00:27:04;;;;;;;12.20;8.55;;;;;;;-1.38;98.84;102297.22;697674;28;3371;-50
2021/11/23 00:27:25;;;;;;;13.68;8.57;;;;;;;-1.36;98.99;102287.06;699726;28;3441;-50
2021/11/23 00:27:46;;;;;;;12.93;8.77;;;;;;;-1.40;98.42;102291.09;699149;28;1346;-50
2021/11/23 00:28:06;;;;;;;11.93;8.53;;;;;;;-1.42;98.26;102292.66;698416;28;4436;-51
2021/11/23 00:28:26;;;;;;;11.65;8.27;;;;;;;-1.41;98.26;102294.44;701693;28;1210;-50
2021/11/23 00:28:47;;;;;;;11.57;8.33;;;;;;;-1.43;98.41;102295.13;701534;28;1244;-50
2021/11/23 00:29:07;;;;;;;12.00;8.80;;;;;;;-1.46;98.56;102289.78;698897;28;1353;-51
2021/11/23 00:29:28;;;;;;;11.70;8.97;;;;;;;-1.44;98.87;102294.25;699387;28;1118;-50
2021/11/23 00:29:48;;;;;;;12.17;8.83;;;;;;;-1.38;98.85;102292.09;696662;28;1796;-51
2021/11/23 00:30:09;;;;;;;11.77;8.33;;;;;;;-1.33;98.52;102289.88;696498;28;3325;-51
2021/11/23 00:30:32;;;;;;;11.73;8.43;;;;;;;-1.29;98.50;102293.53;694123;28;1421;-50
2021/11/23 00:30:52;;;;;;;12.32;8.65;;;;;;;-1.30;97.90;102296.84;693968;28;1163;-51
2021/11/23 00:31:13;;;;;;;11.57;8.43;;;;;;;-1.33;98.04;102287.31;696337;28;4548;-51
2021/11/23 00:31:33;;;;;;;11.07;8.80;;;;;;;-1.35;98.25;102285.41;695832;28;1171;-50
2021/11/23 00:31:54;;;;;;;11.77;9.03;;;;;;;-1.37;97.59;102288.75;699499;28;1159;-50
2021/11/23 00:32:14;;;;;;;12.50;8.55;;;;;;;-1.38;98.39;102286.09;699702;28;1340;-51
2021/11/23 00:32:35;;;;;;;12.13;8.50;;;;;;;-1.40;98.25;102280.84;699932;28;1423;-53
2021/11/23 00:32:56;;;;;;;11.15;8.38;;;;;;;-1.42;98.42;102287.53;696543;28;3160;-50
2021/11/23 00:33:17;;;;;;;11.98;8.73;;;;;;;-1.44;97.94;102283.97;696420;28;3828;-52
2021/11/23 00:33:42;;;;;;;11.88;8.82;;;;;;;-1.46;98.38;102295.78;696848;28;1427;-52
2021/11/23 00:34:02;;;;;;;12.90;8.60;;;;;;;-1.45;98.36;102284.75;696411;28;4748;-51
2021/11/23 00:34:23;;;;;;;11.98;8.68;;;;;;;-1.40;98.32;102285.97;696799;28;1055;-52
2021/11/23 00:34:44;;;;;;;11.55;8.60;;;;;;;-1.40;98.31;102287.63;701147;28;1518;-50
2021/11/23 00:35:05;;;;;;;12.07;8.70;;;;;;;-1.43;97.83;102285.75;701983;28;1213;-51
2021/11/23 00:35:26;;;;;;;13.00;8.93;;;;;;;-1.46;97.93;102280.41;699701;28;1348;-51
2021/11/23 00:35:47;;;;;;;13.60;9.32;;;;;;;-1.45;97.99;102289.88;699098;28;3235;-49
2021/11/23 00:36:07;;;;;;;13.47;9.13;;;;;;;-1.42;97.85;102281.53;698611;28;3383;-50
2021/11/23 00:36:27;;;;;;;12.00;8.98;;;;;;;-1.40;98.24;102280.84;698299;28;1221;-50
2021/11/23 00:36:48;;;;;;;11.50;9.00;;;;;;;-1.39;98.39;102282.59;696579;28;1184;-49
2021/11/23 00:37:08;;;;;;;12.27;9.07;;;;;;;-1.39;98.97;102280.03;696357;28;4419;-50
2021/11/23 00:37:28;;;;;;;12.33;9.10;;;;;;;-1.39;99.04;102282.59;696792;28;1205;-50
2021/11/23 00:37:49;;;;;;;11.50;8.60;;;;;;;-1.39;99.10;102282.59;696517;28;1436;-49
2021/11/23 00:38:10;;;;;;;12.43;8.98;;;;;;;-1.44;99.44;102275.38;695656;28;1377;-49
2021/11/23 00:38:30;;;;;;;13.43;9.47;;;;;;;-1.46;99.32;102280.41;689916;28;1394;-49
2021/11/23 00:38:51;;;;;;;13.20;9.50;;;;;;;-1.49;99.57;102277.63;690513;28;3229;-51
2021/11/23 00:39:11;;;;;;;12.50;9.00;;;;;;;-1.51;99.59;102284.31;690218;28;3977;-51
2021/11/23 00:39:31;;;;;;;13.27;9.37;;;;;;;-1.50;99.24;102283.53;694540;28;1149;-51
2021/11/23 00:39:52;;;;;;;11.82;8.80;;;;;;;-1.51;99.10;102284.31;693481;28;1205;-53
2021/11/23 00:40:13;;;;;;;11.73;9.03;;;;;;;-1.54;99.21;102291.78;693793;28;4737;-50
2021/11/23 00:40:33;;;;;;;12.30;9.43;;;;;;;-1.59;99.70;102281.22;699285;28;1267;-50
2021/11/23 00:40:54;;;;;;;12.97;9.17;;;;;;;-1.60;99.92;102286.25;696100;28;1424;-50
2021/11/23 00:41:17;;;;;;;12.83;8.97;;;;;;;-1.61;100.00;102285.34;696526;28;1143;-51
2021/11/23 00:41:37;;;;;;;12.55;9.05;;;;;;;-1.62;100.00;102282.66;696328;28;1154;-50
2021/11/23 00:41:58;;;;;;;11.73;9.00;;;;;;;-1.63;100.00;102288.59;696199;28;3783;-50
2021/11/23 00:42:18;;;;;;;15.38;9.70;;;;;;;-1.65;100.00;102292.72;692947;28;3734;-51
2021/11/23 00:42:38;;;;;;;13.27;9.47;;;;;;;-1.67;100.00;102284.91;694274;28;1302;-50
2021/11/23 00:43:03;;;;;;;12.63;9.13;;;;;;;-1.66;100.00;102285.78;695389;28;4579;-50
2021/11/23 00:43:24;;;;;;;13.00;9.70;;;;;;;-1.63;99.63;102286.91;695065;28;1982;-50
2021/11/23 00:43:45;;;;;;;13.70;9.63;;;;;;;-1.64;99.91;102285.13;695440;28;1174;-50
2021/11/23 00:44:06;;;;;;;13.23;9.30;;;;;;;-1.66;100.00;102285.78;694858;28;1187;-51
2021/11/23 00:44:26;;;;;;;12.77;9.23;;;;;;;-1.62;99.93;102287.78;693486;28;1164;-50
2021/11/23 00:44:47;;;;;;;12.85;9.18;;;;;;;-1.56;100.00;102290.81;694491;28;1148;-50
2021/11/23 00:45:09;;;;;;;12.43;9.20;;;;;;;-1.60;99.71;102289.69;694094;28;3872;-50
2021/11/23 00:45:34;;;;;;;12.40;9.25;;;;;;;-1.64;99.81;102289.38;692312;28;1269;-50
2021/11/23 00:45:54;;;;;;;13.20;9.40;;;;;;;-1.68;99.41;102285.69;694817;28;4815;-50
2021/11/23 00:46:16;;;;;;;13.83;9.67;;;;;;;-1.71;99.36;102288.03;696435;28;1289;-51
2021/11/23 00:46:38;;;;;;;14.77;9.40;;;;;;;-1.68;99.40;102289.94;699257;28;1337;-50
2021/11/23 00:46:59;;;;;;;13.28;9.08;;;;;;;-1.69;99.48;102286.47;698551;28;1171;-52
2021/11/23 00:47:20;;;;;;;12.77;9.30;;;;;;;-1.71;99.43;102283.78;698675;28;1293;-50
2021/11/23 00:47:41;;;;;;;11.50;8.80;;;;;;;-1.67;99.82;102289.16;696488;28;3243;-51
2021/11/23 00:48:02;;;;;;;11.73;8.90;;;;;;;-1.58;99.97;102284.66;697193;28;2568;-50
2021/11/23 00:48:23;;;;;;;13.82;9.15;;;;;;;-1.62;99.40;102283.56;696440;28;1241;-50
2021/11/23 00:48:44;;;;;;;13.33;9.23;;;;;;;-1.62;99.00;102287.78;697053;28;1173;-50
2021/11/23 00:49:04;;;;;;;14.15;9.40;;;;;;;-1.60;99.40;102286.25;696559;28;4556;-49
2021/11/23 00:49:24;;;;;;;13.15;9.02;;;;;;;-1.60;99.56;102286.25;696947;28;1011;-51
2021/11/23 00:49:45;;;;;;;13.03;9.33;;;;;;;-1.63;99.46;102286.91;699778;28;1201;-50
2021/11/23 00:50:07;;;;;;;13.23;9.43;;;;;;;-1.68;99.61;102287.38;699466;28;1062;-50
2021/11/23 00:50:28;;;;;;;12.02;9.13;;;;;;;-1.71;99.37;102278.66;700185;28;1221;-51
2021/11/23 00:50:50;;;;;;;12.52;9.18;;;;;;;-1.69;99.71;102288.16;699662;28;1987;-52
2021/11/23 00:51:11;;;;;;;13.05;9.63;;;;;;;-1.65;99.40;102293.59;697724;28;3664;-49
2021/11/23 00:51:31;;;;;;;12.45;9.32;;;;;;;-1.59;99.71;102286.34;699424;28;1458;-51
2021/11/23 00:51:52;;;;;;;12.35;9.50;;;;;;;-1.51;99.71;102286.00;699587;28;1210;-50
2021/11/23 00:52:12;;;;;;;12.93;9.50;;;;;;;-1.52;99.32;102279.06;696196;28;5393;-51
2021/11/23 00:52:36;;;;;;;12.82;8.95;;;;;;;-1.48;99.27;102281.06;697567;28;1337;-50
2021/11/23 00:52:56;;;;;;;11.88;8.25;;;;;;;-1.44;99.49;102280.50;697033;28;1302;-49
2021/11/23 00:53:17;;;;;;;12.60;8.88;;;;;;;-1.43;99.45;102285.75;693648;28;1356;-51
2021/11/23 00:53:39;;;;;;;11.65;8.50;;;;;;;-1.41;99.03;102285.88;694631;28;2070;-51
2021/11/23 00:53:59;;;;;;;12.25;8.68;;;;;;;-1.37;99.34;102287.88;694191;28;3563;-52
2021/11/23 00:54:19;;;;;;;11.45;8.15;;;;;;;-1.35;98.60;102277.72;698930;28;1272;-51
2021/11/23 00:54:40;;;;;;;12.73;8.60;;;;;;;-1.28;98.24;102279.91;699265;28;1418;-49
2021/11/23 00:55:00;;;;;;;12.63;8.77;;;;;;;-1.22;98.57;102283.81;699125;28;4493;-51
2021/11/23 00:55:22;;;;;;;11.95;8.80;;;;;;;-1.14;98.07;102289.44;701934;28;1027;-49
2021/11/23 00:55:42;;;;;;;12.73;8.65;;;;;;;-1.13;97.84;102280.97;701427;28;1309;-50
2021/11/23 00:56:05;;;;;;;12.23;8.57;;;;;;;-1.17;97.60;102281.53;701492;28;1266;-52
2021/11/23 00:56:25;;;;;;;13.85;8.90;;;;;;;-1.21;97.63;102284.69;700406;28;2039;-51
2021/11/23 00:56:46;;;;;;;13.43;9.05;;;;;;;-1.26;98.04;102286.94;699821;28;3106;-50
2021/11/23 00:57:06;;;;;;;12.53;9.10;;;;;;;-1.27;97.82;102284.28;698793;28;3897;-49
2021/11/23 00:57:27;;;;;;;12.50;8.90;;;;;;;-1.26;97.92;102283.47;699610;28;1185;-50
2021/11/23 00:57:47;;;;;;;12.40;8.60;;;;;;;-1.27;98.23;102287.72;699935;28;1154;-50
2021/11/23 00:58:07;;;;;;;14.00;8.75;;;;;;;-1.33;98.37;102281.25;699682;28;4470;-49
2021/11/23 00:58:28;;;;;;;12.73;9.47;;;;;;;-1.38;98.51;102281.81;699696;28;1192;-52
2021/11/23 00:58:48;;;;;;;12.90;9.45;;;;;;;-1.40;98.24;102282.50;699406;28;1167;-50
2021/11/23 00:59:08;;;;;;;12.97;8.97;;;;;;;-1.41;98.20;102286.75;699740;28;1437;-51
2021/11/23 00:59:29;;;;;;;12.13;8.80;;;;;;;-1.37;98.38;102280.19;699497;28;1477;-50
2021/11/23 00:59:49;;;;;;;11.43;8.60;;;;;;;-1.34;98.38;102284.59;698847;28;3931;-56
2021/11/23 01:00:12;;;;;;;11.98;8.70;;;;;;;-1.33;98.02;102283.81;698958;28;1221;-50
2021/11/23 01:00:33;;;;;;;11.77;9.00;;;;;;;-1.34;98.02;102284.59;699450;28;1182;-52
2021/11/23 01:00:53;;;;;;;11.65;8.95;;;;;;;-1.35;98.11;102281.16;699367;28;1135;-50
2021/11/23 01:01:14;;;;;;;13.02;8.82;;;;;;;-1.41;98.26;102280.75;696289;28;5176;-52
2021/11/23 01:01:34;;;;;;;13.30;9.03;;;;;;;-1.46;98.56;102280.41;696943;28;1321;-50
2021/11/23 01:01:55;;;;;;;12.23;9.20;;;;;;;-1.49;98.46;102280.19;697533;28;1404;-52
2021/11/23 01:02:15;;;;;;;12.03;9.50;;;;;;;-1.52;99.01;102274.84;695830;28;1261;-50
2021/11/23 01:02:35;;;;;;;12.00;9.13;;;;;;;-1.55;99.00;102277.22;694662;28;3100;-50
2021/11/23 01:02:56;;;;;;;13.73;9.23;;;;;;;-1.51;98.83;102275.72;693713;28;4972;-50
2021/11/23 01:03:17;;;;;;;12.80;9.23;;;;;;;-1.48;98.73;102281.06;696033;28;1424;-52
2021/11/23 01:03:37;;;;;;;12.25;8.73;;;;;;;-1.46;98.40;102280.41;697319;28;1118;-50
2021/11/23 01:03:58;;;;;;;11.57;8.60;;;;;;;-1.48;98.61;102279.41;696202;28;4619;-50
2021/11/23 01:04:18;;;;;;;12.93;8.82;;;;;;;-1.48;98.86;102275.94;695716;28;1086;-51
2021/11/23 01:04:38;;;;;;;12.10;9.37;;;;;;;-1.47;98.49;102278.59;698819;28;1246;-50
2021/11/23 01:04:59;;;;;;;11.73;9.20;;;;;;;-1.46;98.12;102279.53;699624;28;1194;-49
2021/11/23 01:05:19;;;;;;;12.83;9.10;;;;;;;-1.48;98.28;102276.84;698904;28;1091;-49
2021/11/23 01:05:40;;;;;;;12.32;9.00;;;;;;;-1.51;98.22;102275.72;698756;28;3642;-52
2021/11/23 01:06:01;;;;;;;12.83;9.00;;;;;;;-1.49;98.54;102275.06;698243;28;1468;-51
2021/11/23 01:06:22;;;;;;;13.10;8.95;;;;;;;-1.48;98.43;102281.06;694645;28;1802;-52
2021/11/23 01:06:42;;;;;;;12.88;8.85;;;;;;;-1.47;98.90;102275.16;696617;28;1132;-55
2021/11/23 01:07:03;;;;;;;12.53;9.10;;;;;;;-1.49;98.95;102276.75;696387;28;4409;-49
2021/11/23 01:07:24;;;;;;;12.02;9.07;;;;;;;-1.53;99.33;102278.19;696606;28;1356;-49
2021/11/23 01:07:44;;;;;;;13.10;9.18;;;;;;;-1.54;99.38;102271.28;697265;28;1238;-51
2021/11/23 01:08:05;;;;;;;12.93;9.30;;;;;;;-1.54;99.10;102276.41;696657;28;1049;-50
2021/11/23 01:08:27;;;;;;;12.95;8.98;;;;;;;-1.50;99.16;102273.28;699086;28;4314;-52
2021/11/23 01:08:48;;;;;;;12.00;9.10;;;;;;;-1.49;99.19;102276.75;699365;28;3527;-51
2021/11/23 01:09:09;;;;;;;12.80;9.20;;;;;;;-1.51;98.92;102271.47;696177;28;1279;-52
2021/11/23 01:09:30;;;;;;;13.03;9.53;;;;;;;-1.50;98.98;102273.28;695889;28;1907;-50
2021/11/23 01:09:50;;;;;;;12.17;9.10;;;;;;;-1.50;98.53;102277.53;699042;28;1651;-52
2021/11/23 01:10:12;;;;;;;12.97;8.80;;;;;;;-1.52;98.82;102280.00;697796;28;4602;-52
2021/11/23 01:10:32;;;;;;;12.85;8.88;;;;;;;-1.56;99.11;102272.84;699536;28;1336;-51
2021/11/23 01:10:56;;;;;;;12.55;8.80;;;;;;;-1.59;99.36;102275.22;698056;28;1476;-49
2021/11/23 01:11:18;;;;;;;12.70;9.30;;;;;;;-1.61;98.99;102269.06;700696;28;1403;-50
2021/11/23 01:11:38;;;;;;;12.73;9.40;;;;;;;-1.63;99.30;102278.34;700120;28;3393;-50
2021/11/23 01:11:59;;;;;;;13.90;9.60;;;;;;;-1.62;99.11;102269.84;696891;28;1701;-51
2021/11/23 01:12:22;;;;;;;12.45;9.40;;;;;;;-1.60;99.27;102278.56;697391;28;1371;-49
2021/11/23 01:12:42;;;;;;;12.13;8.95;;;;;;;-1.55;99.07;102274.66;698381;28;1403;-52
2021/11/23 01:13:05;;;;;;;12.40;9.04;;;;;;;-1.52;99.09;102274.84;700188;28;5403;-50
2021/11/23 01:13:25;;;;;;;14.65;9.45;;;;;;;-1.51;98.82;102273.16;698811;28;1206;-50
2021/11/23 01:13:48;;;;;;;13.70;9.00;;;;;;;-1.53;98.65;102274.75;699532;28;1822;-55
2021/11/23 01:14:08;;;;;;;12.38;8.98;;;;;;;-1.55;98.52;102274.66;700253;28;1083;-50
2021/11/23 01:14:29;;;;;;;12.05;8.98;;;;;;;-1.59;97.97;102281.22;699302;28;1792;-50
2021/11/23 01:14:50;;;;;;;12.85;9.18;;;;;;;-1.61;98.15;102271.63;700103;28;3766;-55
2021/11/23 01:15:10;;;;;;;13.25;9.23;;;;;;;-1.59;98.46;102275.22;699884;28;1432;-51
2021/11/23 01:15:31;;;;;;;12.77;9.07;;;;;;;-1.55;98.40;102277.22;699932;28;1329;-52
2021/11/23 01:15:51;;;;;;;11.70;8.85;;;;;;;-1.53;98.82;102274.75;700592;28;1328;-51
2021/11/23 01:16:12;;;;;;;12.50;9.00;;;;;;;-1.54;98.77;102278.97;699450;28;4374;-52
2021/11/23 01:16:32;;;;;;;12.90;9.30;;;;;;;-1.57;99.25;102279.63;700175;28;1154;-52
2021/11/23 01:16:53;;;;;;;12.17;9.00;;;;;;;-1.60;99.50;102284.56;699987;28;2930;-51
2021/11/23 01:17:14;;;;;;;12.50;9.17;;;;;;;-1.56;99.41;102278.00;699868;28;1131;-51
2021/11/23 01:17:36;;;;;;;13.52;9.50;;;;;;;-1.52;99.14;102285.13;699616;28;3387;-50
2021/11/23 01:17:56;;;;;;;12.77;9.45;;;;;;;-1.57;99.01;102286.47;699767;28;1362;-51
2021/11/23 01:18:17;;;;;;;13.15;9.25;;;;;;;-1.55;99.28;102280.66;699047;28;1222;-49
2021/11/23 01:18:37;;;;;;;13.77;9.20;;;;;;;-1.58;99.62;102283.00;699568;28;1035;-50
2021/11/23 01:18:58;;;;;;;12.50;9.50;;;;;;;-1.62;100.00;102280.09;699282;28;4455;-50
2021/11/23 01:19:19;;;;;;;12.27;9.13;;;;;;;-1.64;99.80;102276.56;698777;28;1305;-54
2021/11/23 01:19:39;;;;;;;13.33;9.60;;;;;;;-1.68;99.77;102282.25;699107;28;1170;-50
2021/11/23 01:20:00;;;;;;;13.60;9.60;;;;;;;-1.75;100.00;102280.91;699598;28;1135;-50
2021/11/23 01:20:21;;;;;;;12.80;9.73;;;;;;;-1.75;99.99;102281.78;699866;28;3219;-50
2021/11/23 01:20:41;;;;;;;13.60;9.80;;;;;;;-1.71;100.00;102282.91;699698;28;3657;-54
2021/11/23 01:21:04;;;;;;;13.13;9.18;;;;;;;-1.72;99.65;102281.13;699566;28;1037;-50
2021/11/23 01:21:24;;;;;;;13.02;9.55;;;;;;;-1.69;99.94;102283.03;699603;28;1603;-51
2021/11/23 01:21:47;;;;;;;12.80;9.23;;;;;;;-1.63;99.54;102283.47;700086;28;1174;-53
2021/11/23 01:22:07;;;;;;;13.88;9.13;;;;;;;-1.53;99.19;102278.19;700170;28;4444;-51
2021/11/23 01:22:28;;;;;;;13.23;9.07;;;;;;;-1.44;99.05;102281.41;699193;28;1145;-50
2021/11/23 01:22:50;;;;;;;13.43;9.15;;;;;;;-1.45;98.81;102279.63;699224;28;1329;-50
2021/11/23 01:23:10;;;;;;;13.00;8.90;;;;;;;-1.48;98.72;102278.50;700563;28;1425;-50
2021/11/23 01:23:32;;;;;;;15.95;9.50;;;;;;;-1.55;98.60;102277.22;699896;28;3122;-50
2021/11/23 01:23:53;;;;;;;14.20;9.70;;;;;;;-1.61;98.65;102277.63;699048;28;1150;-51
2021/11/23 01:24:14;;;;;;;13.32;9.35;;;;;;;-1.61;98.69;102276.75;696924;28;1048;-50
2021/11/23 01:24:34;;;;;;;12.52;9.25;;;;;;;-1.59;98.63;102272.66;696352;28;1278;-51
2021/11/23 01:24:55;;;;;;;13.23;9.77;;;;;;;-1.59;98.83;102276.09;695955;28;4599;-52
2021/11/23 01:25:15;;;;;;;13.35;9.60;;;;;;;-1.61;98.95;102269.06;697469;28;1202;-50
2021/11/23 01:25:36;;;;;;;13.25;9.30;;;;;;;-1.65;99.15;102278.22;698268;28;1170;-51
2021/11/23 01:25:56;;;;;;;12.93;9.33;;;;;;;-1.62;99.27;102272.41;697521;28;1281;-50
2021/11/23 01:26:17;;;;;;;12.75;9.00;;;;;;;-1.60;99.07;102279.44;699955;28;3588;-50
2021/11/23 01:26:37;;;;;;;12.93;9.50;;;;;;;-1.62;98.81;102274.97;700314;28;3653;-50
2021/11/23 01:26:58;;;;;;;13.45;9.45;;;;;;;-1.65;99.32;102282.44;699426;28;1435;-49
2021/11/23 01:27:19;;;;;;;12.40;9.27;;;;;;;-1.65;99.31;102273.06;695386;28;1433;-51
2021/11/23 01:27:39;;;;;;;12.93;9.40;;;;;;;-1.66;99.15;102275.53;697359;28;1308;-50
2021/11/23 01:28:00;;;;;;;12.07;8.80;;;;;;;-1.66;98.81;102280.66;696191;28;4503;-52
2021/11/23 01:28:21;;;;;;;12.50;8.85;;;;;;;-1.66;99.19;102280.66;697280;28;1111;-51
2021/11/23 01:28:42;;;;;;;12.77;9.60;;;;;;;-1.64;99.28;102280.00;697636;28;1266;-51
2021/11/23 01:29:04;;;;;;;12.03;9.20;;;;;;;-1.63;99.35;102278.34;697204;28;1183;-51
2021/11/23 01:29:26;;;;;;;12.60;9.60;;;;;;;-1.59;98.98;102283.78;696127;28;3319;-50
2021/11/23 01:29:46;;;;;;;12.63;9.32;;;;;;;-1.55;98.60;102274.66;696371;28;1170;-50
2021/11/23 01:30:11;;;;;;;12.17;9.17;;;;;;;-1.52;98.65;102280.00;694587;28;1409;-51
2021/11/23 01:30:32;;;;;;;13.15;9.55;;;;;;;-1.52;98.81;102274.84;694519;28;1171;-53
2021/11/23 01:30:52;;;;;;;13.47;9.87;;;;;;;-1.51;98.37;102276.63;691873;28;1581;-50
2021/11/23 01:31:13;;;;;;;13.32;9.38;;;;;;;-1.53;98.08;102270.50;691706;28;4489;-50
2021/11/23 01:31:33;;;;;;;13.93;9.40;;;;;;;-1.55;98.11;102267.84;693991;28;1152;-50
2021/11/23 01:31:53;;;;;;;13.30;9.18;;;;;;;-1.55;98.35;102277.22;695294;28;1246;-51
2021/11/23 01:32:14;;;;;;;13.07;9.40;;;;;;;-1.53;98.44;102270.50;694708;28;3200;-49
2021/11/23 01:32:35;;;;;;;15.15;9.60;;;;;;;-1.50;98.24;102274.97;694928;28;2651;-51
2021/11/23 01:32:55;;;;;;;14.35;9.43;;;;;;;-1.47;98.61;102270.91;699482;28;1218;-50
2021/11/23 01:33:17;;;;;;;13.23;9.03;;;;;;;-1.44;98.53;102272.81;697083;28;1510;-50
2021/11/23 01:33:38;;;;;;;12.77;9.38;;;;;;;-1.41;98.39;102275.63;697718;28;1377;-50
2021/11/23 01:33:58;;;;;;;12.27;9.63;;;;;;;-1.44;98.40;102268.59;697147;28;4536;-52
2021/11/23 01:34:19;;;;;;;12.77;9.43;;;;;;;-1.40;98.07;102267.09;694434;28;1589;-55
2021/11/23 01:34:40;;;;;;;13.73;9.27;;;;;;;-1.38;98.53;102269.00;695359;28;1250;-51
2021/11/23 01:35:00;;;;;;;12.83;9.03;;;;;;;-1.37;97.62;102269.91;695356;28;1301;-50
2021/11/23 01:35:21;;;;;;;12.18;8.82;;;;;;;-1.38;97.67;102269.00;696290;28;3367;-50
2021/11/23 01:35:42;;;;;;;13.02;9.40;;;;;;;-1.39;97.72;102267.22;698004;28;1200;-51
2021/11/23 01:36:02;;;;;;;14.60;9.77;;;;;;;-1.43;97.96;102260.09;697826;28;1468;-54
2021/11/23 01:36:23;;;;;;;14.82;9.77;;;;;;;-1.42;98.12;102266.13;697425;28;1098;-50
2021/11/23 01:36:43;;;;;;;12.73;9.30;;;;;;;-1.40;98.03;102267.09;697859;28;1088;-53
2021/11/23 01:37:04;;;;;;;13.37;9.70;;;;;;;-1.45;97.90;102263.34;694612;28;4458;-50
2021/11/23 01:37:24;;;;;;;12.93;9.15;;;;;;;-1.46;97.49;102272.69;694552;28;1056;-50
2021/11/23 01:37:45;;;;;;;12.90;9.40;;;;;;;-1.48;97.77;102268.25;695261;28;1371;-52
2021/11/23 01:38:06;;;;;;;13.35;9.43;;;;;;;-1.49;97.84;102262.25;694399;28;2037;-51